sensor_id;sensor_type;location;lat;lon;timestamp;noise_LAeq;noise_LA_min;noise_LA_max;noise_LA01;noise_LA95
66274;Laerm;58450;52.150;4.466;2023-02-01T00:00:04;58.85;42.61;78.52;;
66274;Laerm;58450;52.150;4.466;2023-02-01T00:02:32;62.94;42.26;85.20;;
66274;Laerm;58450;52.150;4.466;2023-02-01T00:05:00;53.91;41.82;68.30;;
66274;Laerm;58450;52.150;4.466;2023-02-01T00:07:28;51.80;40.16;69.69;;
66274;Laerm;58450;52.150;4.466;2023-02-01T00:09:55;53.75;41.30;71.89;;
66274;Laerm;58450;52.150;4.466;2023-02-01T00:12:23;55.00;44.09;69.07;;
66274;Laerm;58450;52.150;4.466;2023-02-01T00:14:50;56.14;41.09;81.01;;
66274;Laerm;58450;52.150;4.466;2023-02-01T00:17:18;56.98;41.85;76.80;;
66274;Laerm;58450;52.150;4.466;2023-02-01T00:19:45;56.99;41.86;76.16;;
66274;Laerm;58450;52.150;4.466;2023-02-01T00:22:14;56.11;42.44;78.52;;
66274;Laerm;58450;52.150;4.466;2023-02-01T00:24:42;59.03;43.75;79.02;;
66274;Laerm;58450;52.150;4.466;2023-02-01T00:27:09;57.09;44.90;71.25;;
66274;Laerm;58450;52.150;4.466;2023-02-01T00:29:37;55.48;41.36;74.49;;
66274;Laerm;58450;52.150;4.466;2023-02-01T00:32:04;59.83;45.43;80.42;;
66274;Laerm;58450;52.150;4.466;2023-02-01T00:34:32;59.58;44.41;77.70;;
66274;Laerm;58450;52.150;4.466;2023-02-01T00:36:59;50.45;40.64;71.54;;
66274;Laerm;58450;52.150;4.466;2023-02-01T00:39:28;56.89;42.86;72.22;;
66274;Laerm;58450;52.150;4.466;2023-02-01T00:41:56;58.16;41.45;79.67;;
66274;Laerm;58450;52.150;4.466;2023-02-01T00:44:23;55.06;41.72;74.04;;
66274;Laerm;58450;52.150;4.466;2023-02-01T00:46:51;47.85;39.44;64.68;;
66274;Laerm;58450;52.150;4.466;2023-02-01T00:49:18;52.37;39.61;73.10;;
66274;Laerm;58450;52.150;4.466;2023-02-01T00:51:46;50.71;39.28;72.83;;
66274;Laerm;58450;52.150;4.466;2023-02-01T00:54:13;56.37;42.01;78.76;;
66274;Laerm;58450;52.150;4.466;2023-02-01T00:56:42;56.89;42.99;77.35;;
66274;Laerm;58450;52.150;4.466;2023-02-01T00:59:11;58.79;44.13;76.67;;
66274;Laerm;58450;52.150;4.466;2023-02-01T01:01:39;48.84;40.87;64.31;;
66274;Laerm;58450;52.150;4.466;2023-02-01T01:04:06;55.28;40.65;74.81;;
66274;Laerm;58450;52.150;4.466;2023-02-01T01:06:34;52.55;40.38;71.75;;
66274;Laerm;58450;52.150;4.466;2023-02-01T01:09:05;54.09;41.31;69.80;;
66274;Laerm;58450;52.150;4.466;2023-02-01T01:11:36;57.09;40.98;76.09;;
66274;Laerm;58450;52.150;4.466;2023-02-01T01:14:08;53.22;41.30;72.81;;
66274;Laerm;58450;52.150;4.466;2023-02-01T01:16:36;51.43;39.99;66.95;;
66274;Laerm;58450;52.150;4.466;2023-02-01T01:19:04;53.40;40.36;70.11;;
66274;Laerm;58450;52.150;4.466;2023-02-01T01:21:31;56.53;40.94;74.27;;
66274;Laerm;58450;52.150;4.466;2023-02-01T01:23:59;55.89;40.43;73.65;;
66274;Laerm;58450;52.150;4.466;2023-02-01T01:26:28;56.62;43.85;75.33;;
66274;Laerm;58450;52.150;4.466;2023-02-01T01:28:57;59.02;44.44;80.43;;
66274;Laerm;58450;52.150;4.466;2023-02-01T01:31:27;55.92;39.90;71.45;;
66274;Laerm;58450;52.150;4.466;2023-02-01T01:33:57;58.40;43.76;78.71;;
66274;Laerm;58450;52.150;4.466;2023-02-01T01:36:27;61.14;42.73;84.50;;
66274;Laerm;58450;52.150;4.466;2023-02-01T01:38:55;62.87;45.60;83.08;;
66274;Laerm;58450;52.150;4.466;2023-02-01T01:41:25;56.23;42.23;74.84;;
66274;Laerm;58450;52.150;4.466;2023-02-01T01:43:55;56.89;44.75;82.39;;
66274;Laerm;58450;52.150;4.466;2023-02-01T01:46:27;59.68;42.45;80.79;;
66274;Laerm;58450;52.150;4.466;2023-02-01T01:49:05;55.98;46.26;77.48;;
66274;Laerm;58450;52.150;4.466;2023-02-01T01:51:40;58.52;43.84;79.11;;
66274;Laerm;58450;52.150;4.466;2023-02-01T01:54:13;57.79;43.24;75.11;;
66274;Laerm;58450;52.150;4.466;2023-02-01T01:56:47;55.10;43.14;76.82;;
66274;Laerm;58450;52.150;4.466;2023-02-01T01:59:16;53.52;43.30;68.62;;
66274;Laerm;58450;52.150;4.466;2023-02-01T02:01:46;55.11;42.38;69.09;;
66274;Laerm;58450;52.150;4.466;2023-02-01T02:04:14;62.40;46.02;81.16;;
66274;Laerm;58450;52.150;4.466;2023-02-01T02:06:45;59.27;43.00;75.36;;
66274;Laerm;58450;52.150;4.466;2023-02-01T02:09:15;57.96;44.62;78.55;;
66274;Laerm;58450;52.150;4.466;2023-02-01T02:11:43;57.84;44.47;78.89;;
66274;Laerm;58450;52.150;4.466;2023-02-01T02:14:14;58.05;42.78;77.11;;
66274;Laerm;58450;52.150;4.466;2023-02-01T02:17:06;55.89;42.92;77.74;;
66274;Laerm;58450;52.150;4.466;2023-02-01T02:20:30;56.79;42.73;75.97;;
66274;Laerm;58450;52.150;4.466;2023-02-01T02:23:53;59.08;42.34;83.59;;
66274;Laerm;58450;52.150;4.466;2023-02-01T02:26:49;58.82;43.45;76.01;;
66274;Laerm;58450;52.150;4.466;2023-02-01T02:30:00;63.61;44.98;83.95;;
66274;Laerm;58450;52.150;4.466;2023-02-01T02:33:13;60.01;44.53;79.94;;
66274;Laerm;58450;52.150;4.466;2023-02-01T02:35:46;60.44;42.47;83.38;;
66274;Laerm;58450;52.150;4.466;2023-02-01T02:38:29;58.84;41.97;78.12;;
66274;Laerm;58450;52.150;4.466;2023-02-01T02:41:08;59.70;45.33;79.46;;
66274;Laerm;58450;52.150;4.466;2023-02-01T02:43:48;60.07;46.32;75.79;;
66274;Laerm;58450;52.150;4.466;2023-02-01T02:46:46;60.95;44.20;83.64;;
66274;Laerm;58450;52.150;4.466;2023-02-01T02:49:40;59.84;43.49;82.62;;
66274;Laerm;58450;52.150;4.466;2023-02-01T02:52:35;56.14;43.22;72.87;;
66274;Laerm;58450;52.150;4.466;2023-02-01T02:55:23;58.98;44.12;78.65;;
66274;Laerm;58450;52.150;4.466;2023-02-01T02:57:51;57.13;45.36;75.67;;
66274;Laerm;58450;52.150;4.466;2023-02-01T03:00:37;62.03;46.27;78.03;;
66274;Laerm;58450;52.150;4.466;2023-02-01T03:03:23;56.00;44.74;77.37;;
66274;Laerm;58450;52.150;4.466;2023-02-01T03:06:15;51.36;41.78;67.17;;
66274;Laerm;58450;52.150;4.466;2023-02-01T03:08:44;57.14;42.70;75.43;;
66274;Laerm;58450;52.150;4.466;2023-02-01T03:11:14;56.63;44.27;76.56;;
66274;Laerm;58450;52.150;4.466;2023-02-01T03:13:48;61.24;43.59;79.31;;
66274;Laerm;58450;52.150;4.466;2023-02-01T03:16:22;64.71;46.54;84.58;;
66274;Laerm;58450;52.150;4.466;2023-02-01T03:18:57;59.33;42.72;80.14;;
66274;Laerm;58450;52.150;4.466;2023-02-01T03:21:34;59.89;42.71;80.20;;
66274;Laerm;58450;52.150;4.466;2023-02-01T03:24:10;61.98;45.44;84.96;;
66274;Laerm;58450;52.150;4.466;2023-02-01T03:26:44;58.54;42.36;83.35;;
66274;Laerm;58450;52.150;4.466;2023-02-01T03:29:21;57.81;44.50;76.42;;
66274;Laerm;58450;52.150;4.466;2023-02-01T03:31:51;60.35;45.71;80.75;;
66274;Laerm;58450;52.150;4.466;2023-02-01T03:34:19;60.30;47.80;80.64;;
66274;Laerm;58450;52.150;4.466;2023-02-01T03:36:52;60.69;43.99;82.24;;
66274;Laerm;58450;52.150;4.466;2023-02-01T03:39:32;57.71;44.22;77.88;;
66274;Laerm;58450;52.150;4.466;2023-02-01T03:42:06;52.68;42.84;71.36;;
66274;Laerm;58450;52.150;4.466;2023-02-01T03:44:41;60.41;43.93;82.72;;
66274;Laerm;58450;52.150;4.466;2023-02-01T03:47:16;68.79;44.72;94.04;;
66274;Laerm;58450;52.150;4.466;2023-02-01T03:49:53;58.77;46.43;77.15;;
66274;Laerm;58450;52.150;4.466;2023-02-01T03:52:31;54.68;42.71;77.75;;
66274;Laerm;58450;52.150;4.466;2023-02-01T03:55:01;51.76;41.11;71.15;;
66274;Laerm;58450;52.150;4.466;2023-02-01T03:57:33;60.27;42.45;79.22;;
66274;Laerm;58450;52.150;4.466;2023-02-01T04:00:14;54.83;44.26;69.97;;
66274;Laerm;58450;52.150;4.466;2023-02-01T04:02:42;61.95;48.80;78.22;;
66274;Laerm;58450;52.150;4.466;2023-02-01T04:05:10;56.75;45.86;75.42;;
66274;Laerm;58450;52.150;4.466;2023-02-01T04:07:39;59.46;44.96;78.39;;
66274;Laerm;58450;52.150;4.466;2023-02-01T04:10:08;57.35;44.09;81.88;;
66274;Laerm;58450;52.150;4.466;2023-02-01T04:12:37;59.86;45.68;77.60;;
66274;Laerm;58450;52.150;4.466;2023-02-01T04:15:06;57.15;43.65;72.86;;
66274;Laerm;58450;52.150;4.466;2023-02-01T04:17:33;58.37;42.86;80.18;;
66274;Laerm;58450;52.150;4.466;2023-02-01T04:20:01;60.81;44.37;80.17;;
66274;Laerm;58450;52.150;4.466;2023-02-01T04:22:28;61.41;46.43;81.89;;
66274;Laerm;58450;52.150;4.466;2023-02-01T04:24:57;55.84;43.05;77.15;;
66274;Laerm;58450;52.150;4.466;2023-02-01T04:27:25;60.63;48.90;77.54;;
66274;Laerm;58450;52.150;4.466;2023-02-01T04:29:52;54.05;42.04;73.45;;
66274;Laerm;58450;52.150;4.466;2023-02-01T04:32:20;55.27;43.18;74.81;;
66274;Laerm;58450;52.150;4.466;2023-02-01T04:34:47;56.19;42.92;78.52;;
66274;Laerm;58450;52.150;4.466;2023-02-01T04:37:14;56.90;44.98;76.60;;
66274;Laerm;58450;52.150;4.466;2023-02-01T04:39:42;58.63;43.90;77.05;;
66274;Laerm;58450;52.150;4.466;2023-02-01T04:42:11;60.61;45.46;76.95;;
66274;Laerm;58450;52.150;4.466;2023-02-01T04:44:38;59.28;47.00;72.89;;
66274;Laerm;58450;52.150;4.466;2023-02-01T04:47:08;58.66;44.04;75.83;;
66274;Laerm;58450;52.150;4.466;2023-02-01T04:49:35;56.24;44.75;74.69;;
66274;Laerm;58450;52.150;4.466;2023-02-01T04:52:03;59.17;46.23;79.28;;
66274;Laerm;58450;52.150;4.466;2023-02-01T04:54:31;60.01;45.63;78.16;;
66274;Laerm;58450;52.150;4.466;2023-02-01T04:56:58;60.50;46.98;80.87;;
66274;Laerm;58450;52.150;4.466;2023-02-01T04:59:27;59.48;44.94;73.75;;
66274;Laerm;58450;52.150;4.466;2023-02-01T05:01:55;55.42;45.68;75.05;;
66274;Laerm;58450;52.150;4.466;2023-02-01T05:04:22;58.05;45.69;80.45;;
66274;Laerm;58450;52.150;4.466;2023-02-01T05:06:50;58.52;46.27;75.77;;
66274;Laerm;58450;52.150;4.466;2023-02-01T05:09:17;57.92;45.85;75.76;;
66274;Laerm;58450;52.150;4.466;2023-02-01T05:11:45;60.23;45.17;80.14;;
66274;Laerm;58450;52.150;4.466;2023-02-01T05:14:31;59.60;47.19;78.54;;
66274;Laerm;58450;52.150;4.466;2023-02-01T05:16:58;55.84;47.08;75.77;;
66274;Laerm;58450;52.150;4.466;2023-02-01T05:19:26;58.89;44.82;71.95;;
66274;Laerm;58450;52.150;4.466;2023-02-01T05:21:53;55.82;45.64;73.51;;
66274;Laerm;58450;52.150;4.466;2023-02-01T05:24:21;60.95;47.44;78.59;;
66274;Laerm;58450;52.150;4.466;2023-02-01T05:26:49;60.92;47.76;81.51;;
66274;Laerm;58450;52.150;4.466;2023-02-01T05:29:17;59.65;47.21;80.32;;
66274;Laerm;58450;52.150;4.466;2023-02-01T05:31:47;58.25;46.79;76.97;;
66274;Laerm;58450;52.150;4.466;2023-02-01T05:34:15;61.23;50.25;77.76;;
66274;Laerm;58450;52.150;4.466;2023-02-01T05:36:43;58.68;48.52;79.03;;
66274;Laerm;58450;52.150;4.466;2023-02-01T05:39:11;59.26;50.33;77.54;;
66274;Laerm;58450;52.150;4.466;2023-02-01T05:41:38;57.49;48.38;80.86;;
66274;Laerm;58450;52.150;4.466;2023-02-01T05:44:05;58.30;47.02;75.60;;
66274;Laerm;58450;52.150;4.466;2023-02-01T05:46:34;57.01;47.13;72.70;;
66274;Laerm;58450;52.150;4.466;2023-02-01T05:49:03;58.61;48.13;74.97;;
66274;Laerm;58450;52.150;4.466;2023-02-01T05:51:31;58.09;49.31;74.38;;
66274;Laerm;58450;52.150;4.466;2023-02-01T05:53:59;58.50;47.21;78.16;;
66274;Laerm;58450;52.150;4.466;2023-02-01T05:56:27;56.73;47.67;74.07;;
66274;Laerm;58450;52.150;4.466;2023-02-01T05:58:54;56.46;47.41;75.97;;
66274;Laerm;58450;52.150;4.466;2023-02-01T06:01:21;57.38;45.83;78.47;;
66274;Laerm;58450;52.150;4.466;2023-02-01T06:03:49;58.80;49.05;77.64;;
66274;Laerm;58450;52.150;4.466;2023-02-01T06:06:18;60.77;48.98;78.32;;
66274;Laerm;58450;52.150;4.466;2023-02-01T06:08:46;68.06;50.71;84.01;;
66274;Laerm;58450;52.150;4.466;2023-02-01T06:11:13;69.61;51.99;85.56;;
66274;Laerm;58450;52.150;4.466;2023-02-01T06:13:41;65.70;51.11;80.37;;
66274;Laerm;58450;52.150;4.466;2023-02-01T06:16:08;61.15;49.77;77.93;;
66274;Laerm;58450;52.150;4.466;2023-02-01T06:18:36;60.89;51.35;81.24;;
66274;Laerm;58450;52.150;4.466;2023-02-01T06:21:04;69.91;53.79;84.25;;
66274;Laerm;58450;52.150;4.466;2023-02-01T06:23:34;68.96;54.68;83.79;;
66274;Laerm;58450;52.150;4.466;2023-02-01T06:26:05;66.20;50.51;80.59;;
66274;Laerm;58450;52.150;4.466;2023-02-01T06:28:34;64.74;52.28;81.16;;
66274;Laerm;58450;52.150;4.466;2023-02-01T06:31:04;60.79;52.54;77.09;;
66274;Laerm;58450;52.150;4.466;2023-02-01T06:33:33;61.69;52.66;75.92;;
66274;Laerm;58450;52.150;4.466;2023-02-01T06:36:03;69.61;52.76;85.04;;
66274;Laerm;58450;52.150;4.466;2023-02-01T06:38:33;73.00;54.91;86.89;;
66274;Laerm;58450;52.150;4.466;2023-02-01T06:41:02;69.28;52.74;84.21;;
66274;Laerm;58450;52.150;4.466;2023-02-01T06:43:31;63.28;51.79;80.02;;
66274;Laerm;58450;52.150;4.466;2023-02-01T06:46:00;63.35;53.20;82.19;;
66274;Laerm;58450;52.150;4.466;2023-02-01T06:48:28;61.29;52.60;79.57;;
66274;Laerm;58450;52.150;4.466;2023-02-01T06:50:56;68.53;51.67;80.88;;
66274;Laerm;58450;52.150;4.466;2023-02-01T06:53:23;68.37;52.17;82.87;;
66274;Laerm;58450;52.150;4.466;2023-02-01T06:55:54;61.97;51.78;75.51;;
66274;Laerm;58450;52.150;4.466;2023-02-01T06:58:22;61.18;50.51;83.62;;
66274;Laerm;58450;52.150;4.466;2023-02-01T07:00:50;61.49;50.68;78.73;;
66274;Laerm;58450;52.150;4.466;2023-02-01T07:03:19;69.65;50.39;83.69;;
66274;Laerm;58450;52.150;4.466;2023-02-01T07:05:47;68.89;53.97;85.74;;
66274;Laerm;58450;52.150;4.466;2023-02-01T07:08:14;65.73;51.21;81.59;;
66274;Laerm;58450;52.150;4.466;2023-02-01T07:10:42;60.88;50.71;79.10;;
66274;Laerm;58450;52.150;4.466;2023-02-01T07:13:10;58.50;50.13;71.68;;
66274;Laerm;58450;52.150;4.466;2023-02-01T07:15:38;58.81;52.40;70.27;;
66274;Laerm;58450;52.150;4.466;2023-02-01T07:18:06;68.02;53.27;81.40;;
66274;Laerm;58450;52.150;4.466;2023-02-01T07:20:33;69.21;55.75;81.05;;
66274;Laerm;58450;52.150;4.466;2023-02-01T07:23:01;68.28;54.89;80.80;;
66274;Laerm;58450;52.150;4.466;2023-02-01T07:25:28;63.45;53.66;84.00;;
66274;Laerm;58450;52.150;4.466;2023-02-01T07:27:55;62.51;54.07;79.23;;
66274;Laerm;58450;52.150;4.466;2023-02-01T07:30:24;61.39;53.26;78.00;;
66274;Laerm;58450;52.150;4.466;2023-02-01T07:32:52;61.03;53.02;79.36;;
66274;Laerm;58450;52.150;4.466;2023-02-01T07:35:19;60.83;52.33;81.44;;
66274;Laerm;58450;52.150;4.466;2023-02-01T07:37:47;59.93;53.27;74.74;;
66274;Laerm;58450;52.150;4.466;2023-02-01T07:40:15;62.26;53.03;83.03;;
66274;Laerm;58450;52.150;4.466;2023-02-01T07:42:42;60.03;52.79;73.53;;
66274;Laerm;58450;52.150;4.466;2023-02-01T07:45:10;59.46;53.06;76.40;;
66274;Laerm;58450;52.150;4.466;2023-02-01T07:47:40;58.97;51.96;70.19;;
66274;Laerm;58450;52.150;4.466;2023-02-01T07:50:09;60.18;53.40;76.91;;
66274;Laerm;58450;52.150;4.466;2023-02-01T07:52:36;61.95;52.83;80.40;;
66274;Laerm;58450;52.150;4.466;2023-02-01T07:55:05;57.67;50.79;69.05;;
66274;Laerm;58450;52.150;4.466;2023-02-01T07:57:32;60.22;49.73;75.22;;
66274;Laerm;58450;52.150;4.466;2023-02-01T08:00:00;61.82;50.37;84.66;;
66274;Laerm;58450;52.150;4.466;2023-02-01T08:02:46;59.64;48.35;78.48;;
66274;Laerm;58450;52.150;4.466;2023-02-01T08:05:14;57.52;48.77;75.97;;
66274;Laerm;58450;52.150;4.466;2023-02-01T08:07:41;63.12;48.95;82.97;;
66274;Laerm;58450;52.150;4.466;2023-02-01T08:10:09;57.38;48.27;72.51;;
66274;Laerm;58450;52.150;4.466;2023-02-01T08:12:37;59.27;49.07;77.59;;
66274;Laerm;58450;52.150;4.466;2023-02-01T08:15:06;57.37;49.24;69.42;;
66274;Laerm;58450;52.150;4.466;2023-02-01T08:17:34;59.58;49.03;78.46;;
66274;Laerm;58450;52.150;4.466;2023-02-01T08:20:04;56.99;48.04;72.50;;
66274;Laerm;58450;52.150;4.466;2023-02-01T08:22:32;61.77;48.31;78.33;;
66274;Laerm;58450;52.150;4.466;2023-02-01T08:24:59;59.42;50.78;70.86;;
66274;Laerm;58450;52.150;4.466;2023-02-01T08:27:27;59.19;49.61;75.82;;
66274;Laerm;58450;52.150;4.466;2023-02-01T08:29:55;58.48;47.20;75.91;;
66274;Laerm;58450;52.150;4.466;2023-02-01T08:32:22;57.59;47.99;73.77;;
66274;Laerm;58450;52.150;4.466;2023-02-01T08:34:50;60.63;48.51;77.29;;
66274;Laerm;58450;52.150;4.466;2023-02-01T08:37:19;56.33;47.94;70.70;;
66274;Laerm;58450;52.150;4.466;2023-02-01T08:39:46;59.09;49.56;77.44;;
66274;Laerm;58450;52.150;4.466;2023-02-01T08:42:16;59.03;49.23;78.73;;
66274;Laerm;58450;52.150;4.466;2023-02-01T08:45:02;63.48;50.88;82.76;;
66274;Laerm;58450;52.150;4.466;2023-02-01T08:47:31;58.84;51.09;75.64;;
66274;Laerm;58450;52.150;4.466;2023-02-01T08:49:58;58.70;49.38;73.31;;
66274;Laerm;58450;52.150;4.466;2023-02-01T08:52:27;57.99;49.81;70.25;;
66274;Laerm;58450;52.150;4.466;2023-02-01T08:54:54;69.80;56.26;85.85;;
66274;Laerm;58450;52.150;4.466;2023-02-01T08:57:22;70.67;58.28;84.61;;
66274;Laerm;58450;52.150;4.466;2023-02-01T08:59:49;67.78;56.79;82.06;;
66274;Laerm;58450;52.150;4.466;2023-02-01T09:02:17;64.11;55.74;77.44;;
66274;Laerm;58450;52.150;4.466;2023-02-01T09:04:45;62.34;55.88;74.17;;
66274;Laerm;58450;52.150;4.466;2023-02-01T09:07:12;60.94;54.83;72.91;;
66274;Laerm;58450;52.150;4.466;2023-02-01T09:09:42;64.21;56.76;80.05;;
66274;Laerm;58450;52.150;4.466;2023-02-01T09:12:09;66.71;55.01;86.02;;
66274;Laerm;58450;52.150;4.466;2023-02-01T09:14:37;69.58;55.53;82.43;;
66274;Laerm;58450;52.150;4.466;2023-02-01T09:17:04;68.90;57.01;83.13;;
66274;Laerm;58450;52.150;4.466;2023-02-01T09:19:32;62.22;52.54;77.05;;
66274;Laerm;58450;52.150;4.466;2023-02-01T09:22:00;59.81;52.39;77.59;;
66274;Laerm;58450;52.150;4.466;2023-02-01T09:24:27;67.92;53.45;90.34;;
66274;Laerm;58450;52.150;4.466;2023-02-01T09:26:56;69.09;54.38;80.25;;
66274;Laerm;58450;52.150;4.466;2023-02-01T09:29:24;65.96;54.43;79.55;;
66274;Laerm;58450;52.150;4.466;2023-02-01T09:31:51;60.71;52.87;79.84;;
66274;Laerm;58450;52.150;4.466;2023-02-01T09:34:18;67.02;53.60;83.86;;
66274;Laerm;58450;52.150;4.466;2023-02-01T09:36:46;70.23;54.77;87.79;;
66274;Laerm;58450;52.150;4.466;2023-02-01T09:39:13;67.09;55.73;83.00;;
66274;Laerm;58450;52.150;4.466;2023-02-01T09:41:59;64.83;53.63;83.19;;
66274;Laerm;58450;52.150;4.466;2023-02-01T09:44:50;61.79;51.27;76.47;;
66274;Laerm;58450;52.150;4.466;2023-02-01T09:47:23;68.72;53.53;91.72;;
66274;Laerm;58450;52.150;4.466;2023-02-01T09:49:59;68.76;54.87;86.67;;
66274;Laerm;58450;52.150;4.466;2023-02-01T09:52:36;65.81;54.51;82.43;;
66274;Laerm;58450;52.150;4.466;2023-02-01T09:55:13;62.66;52.91;84.87;;
66274;Laerm;58450;52.150;4.466;2023-02-01T09:57:53;60.63;52.56;75.28;;
66274;Laerm;58450;52.150;4.466;2023-02-01T10:00:26;60.40;51.77;76.18;;
66274;Laerm;58450;52.150;4.466;2023-02-01T10:02:56;58.06;50.71;77.35;;
66274;Laerm;58450;52.150;4.466;2023-02-01T10:05:43;61.12;51.86;84.83;;
66274;Laerm;58450;52.150;4.466;2023-02-01T10:08:26;61.72;52.70;83.67;;
66274;Laerm;58450;52.150;4.466;2023-02-01T10:11:17;65.46;53.67;84.25;;
66274;Laerm;58450;52.150;4.466;2023-02-01T10:13:59;65.74;54.18;86.11;;
66274;Laerm;58450;52.150;4.466;2023-02-01T10:16:41;64.73;52.62;85.36;;
66274;Laerm;58450;52.150;4.466;2023-02-01T10:19:28;63.90;52.74;75.68;;
66274;Laerm;58450;52.150;4.466;2023-02-01T10:22:02;70.66;54.53;90.22;;
66274;Laerm;58450;52.150;4.466;2023-02-01T10:24:40;68.09;54.29;81.96;;
66274;Laerm;58450;52.150;4.466;2023-02-01T10:27:16;72.13;55.69;89.50;;
66274;Laerm;58450;52.150;4.466;2023-02-01T10:29:51;66.91;53.68;82.83;;
66274;Laerm;58450;52.150;4.466;2023-02-01T10:32:29;67.21;54.82;87.76;;
66274;Laerm;58450;52.150;4.466;2023-02-01T10:35:00;70.54;54.45;87.45;;
66274;Laerm;58450;52.150;4.466;2023-02-01T10:37:31;61.17;52.57;80.39;;
66274;Laerm;58450;52.150;4.466;2023-02-01T10:40:08;67.98;52.77;86.00;;
66274;Laerm;58450;52.150;4.466;2023-02-01T10:42:40;65.76;52.25;80.95;;
66274;Laerm;58450;52.150;4.466;2023-02-01T10:45:15;64.75;54.76;85.98;;
66274;Laerm;58450;52.150;4.466;2023-02-01T10:47:44;72.02;53.77;86.88;;
66274;Laerm;58450;52.150;4.466;2023-02-01T10:50:20;62.76;52.45;83.62;;
66274;Laerm;58450;52.150;4.466;2023-02-01T10:52:57;69.24;52.30;84.57;;
66274;Laerm;58450;52.150;4.466;2023-02-01T10:55:33;68.12;53.71;83.82;;
66274;Laerm;58450;52.150;4.466;2023-02-01T10:58:04;63.67;54.00;84.88;;
66274;Laerm;58450;52.150;4.466;2023-02-01T11:00:46;71.12;54.84;87.55;;
66274;Laerm;58450;52.150;4.466;2023-02-01T11:03:39;69.45;53.27;87.47;;
66274;Laerm;58450;52.150;4.466;2023-02-01T11:06:21;68.40;53.31;93.74;;
66274;Laerm;58450;52.150;4.466;2023-02-01T11:08:53;70.04;51.93;91.04;;
66274;Laerm;58450;52.150;4.466;2023-02-01T11:11:23;67.08;53.13;83.38;;
66274;Laerm;58450;52.150;4.466;2023-02-01T11:13:57;64.42;53.22;82.85;;
66274;Laerm;58450;52.150;4.466;2023-02-01T11:16:35;67.35;55.17;86.86;;
66274;Laerm;58450;52.150;4.466;2023-02-01T11:19:03;63.94;52.65;82.29;;
66274;Laerm;58450;52.150;4.466;2023-02-01T11:21:32;65.43;53.15;84.96;;
66274;Laerm;58450;52.150;4.466;2023-02-01T11:24:02;63.94;51.81;84.71;;
66274;Laerm;58450;52.150;4.466;2023-02-01T11:26:31;75.13;57.73;97.77;;
66274;Laerm;58450;52.150;4.466;2023-02-01T11:29:05;62.79;52.63;85.15;;
66274;Laerm;58450;52.150;4.466;2023-02-01T11:31:39;70.89;51.93;87.14;;
66274;Laerm;58450;52.150;4.466;2023-02-01T11:34:15;66.13;52.78;83.67;;
66274;Laerm;58450;52.150;4.466;2023-02-01T11:36:46;63.50;51.59;79.97;;
66274;Laerm;58450;52.150;4.466;2023-02-01T11:39:25;68.13;52.37;85.35;;
66274;Laerm;58450;52.150;4.466;2023-02-01T11:42:01;60.49;50.64;76.64;;
66274;Laerm;58450;52.150;4.466;2023-02-01T11:44:35;60.50;51.19;75.93;;
66274;Laerm;58450;52.150;4.466;2023-02-01T11:47:25;63.74;51.14;83.19;;
66274;Laerm;58450;52.150;4.466;2023-02-01T11:49:55;62.60;51.59;78.27;;
66274;Laerm;58450;52.150;4.466;2023-02-01T11:52:41;65.42;53.98;85.10;;
66274;Laerm;58450;52.150;4.466;2023-02-01T11:55:35;67.62;53.58;87.05;;
66274;Laerm;58450;52.150;4.466;2023-02-01T11:58:22;61.28;50.23;80.43;;
66274;Laerm;58450;52.150;4.466;2023-02-01T12:01:28;66.06;51.15;85.46;;
66274;Laerm;58450;52.150;4.466;2023-02-01T12:07:40;65.83;53.03;80.66;;
66274;Laerm;58450;52.150;4.466;2023-02-01T12:10:28;69.39;52.50;88.68;;
66274;Laerm;58450;52.150;4.466;2023-02-01T12:13:14;67.93;54.48;87.63;;
66274;Laerm;58450;52.150;4.466;2023-02-01T12:16:02;69.56;50.88;87.54;;
66274;Laerm;58450;52.150;4.466;2023-02-01T12:19:08;65.78;52.48;84.93;;
66274;Laerm;58450;52.150;4.466;2023-02-01T12:21:59;68.83;50.44;93.27;;
66274;Laerm;58450;52.150;4.466;2023-02-01T12:24:53;69.26;56.76;92.70;;
66274;Laerm;58450;52.150;4.466;2023-02-01T12:27:46;66.50;54.75;86.49;;
66274;Laerm;58450;52.150;4.466;2023-02-01T12:30:54;63.89;53.18;77.24;;
66274;Laerm;58450;52.150;4.466;2023-02-01T12:33:40;65.35;54.44;82.36;;
66274;Laerm;58450;52.150;4.466;2023-02-01T12:36:18;65.59;53.22;80.19;;
66274;Laerm;58450;52.150;4.466;2023-02-01T12:38:57;64.80;54.37;85.27;;
66274;Laerm;58450;52.150;4.466;2023-02-01T12:41:54;65.46;54.30;82.47;;
66274;Laerm;58450;52.150;4.466;2023-02-01T12:44:44;63.91;55.34;81.55;;
66274;Laerm;58450;52.150;4.466;2023-02-01T12:47:22;68.27;56.25;82.50;;
66274;Laerm;58450;52.150;4.466;2023-02-01T12:49:59;68.30;56.39;85.23;;
66274;Laerm;58450;52.150;4.466;2023-02-01T12:52:38;66.26;55.99;84.06;;
66274;Laerm;58450;52.150;4.466;2023-02-01T12:55:19;70.42;55.97;88.50;;
66274;Laerm;58450;52.150;4.466;2023-02-01T12:57:53;68.18;55.68;83.88;;
66274;Laerm;58450;52.150;4.466;2023-02-01T13:00:29;70.37;56.79;84.26;;
66274;Laerm;58450;52.150;4.466;2023-02-01T13:03:07;66.54;55.29;85.63;;
66274;Laerm;58450;52.150;4.466;2023-02-01T13:05:50;69.45;55.51;85.37;;
66274;Laerm;58450;52.150;4.466;2023-02-01T13:08:24;65.24;56.11;83.96;;
66274;Laerm;58450;52.150;4.466;2023-02-01T13:11:03;68.17;55.63;82.39;;
66274;Laerm;58450;52.150;4.466;2023-02-01T13:13:44;63.29;55.74;78.28;;
66274;Laerm;58450;52.150;4.466;2023-02-01T13:16:18;64.35;54.05;85.08;;
66274;Laerm;58450;52.150;4.466;2023-02-01T13:19:03;67.56;56.05;86.72;;
66274;Laerm;58450;52.150;4.466;2023-02-01T13:21:39;65.01;54.97;83.84;;
66274;Laerm;58450;52.150;4.466;2023-02-01T13:24:24;66.39;55.20;85.25;;
66274;Laerm;58450;52.150;4.466;2023-02-01T13:26:56;70.39;53.50;85.80;;
66274;Laerm;58450;52.150;4.466;2023-02-01T13:29:25;65.66;53.21;82.16;;
66274;Laerm;58450;52.150;4.466;2023-02-01T13:32:12;67.73;54.41;87.73;;
66274;Laerm;58450;52.150;4.466;2023-02-01T13:35:24;67.80;54.10;83.89;;
66274;Laerm;58450;52.150;4.466;2023-02-01T13:38:33;65.87;53.11;84.26;;
66274;Laerm;58450;52.150;4.466;2023-02-01T13:41:25;63.72;52.57;86.49;;
66274;Laerm;58450;52.150;4.466;2023-02-01T13:44:00;61.66;52.48;78.06;;
66274;Laerm;58450;52.150;4.466;2023-02-01T13:46:30;62.73;51.56;82.34;;
66274;Laerm;58450;52.150;4.466;2023-02-01T13:49:05;58.83;51.36;77.26;;
66274;Laerm;58450;52.150;4.466;2023-02-01T13:51:37;59.54;51.46;80.84;;
66274;Laerm;58450;52.150;4.466;2023-02-01T13:54:28;61.71;52.82;82.54;;
66274;Laerm;58450;52.150;4.466;2023-02-01T13:56:58;62.62;53.53;83.27;;
66274;Laerm;58450;52.150;4.466;2023-02-01T13:59:53;59.86;52.04;83.53;;
66274;Laerm;58450;52.150;4.466;2023-02-01T14:02:49;62.78;51.48;77.28;;
66274;Laerm;58450;52.150;4.466;2023-02-01T14:08:42;58.54;50.86;72.15;;
66274;Laerm;58450;52.150;4.466;2023-02-01T14:11:38;58.56;50.49;77.40;;
66274;Laerm;58450;52.150;4.466;2023-02-01T14:14:41;60.26;50.27;76.06;;
66274;Laerm;58450;52.150;4.466;2023-02-01T14:17:33;60.89;51.29;78.60;;
66274;Laerm;58450;52.150;4.466;2023-02-01T14:20:44;59.95;50.09;80.64;;
66274;Laerm;58450;52.150;4.466;2023-02-01T14:23:30;60.88;50.92;75.70;;
66274;Laerm;58450;52.150;4.466;2023-02-01T14:26:21;62.08;55.09;76.99;;
66274;Laerm;58450;52.150;4.466;2023-02-01T14:29:21;62.94;52.09;77.74;;